createdAt,value
2023-05-12T00:01:59.893Z,99.90
2023-05-12T00:04:27.066Z,99.90
2023-05-12T00:06:54.158Z,99.90
2023-05-12T00:09:21.075Z,99.90
2023-05-12T00:11:49.407Z,99.90
2023-05-12T00:14:16.895Z,99.90
2023-05-12T00:16:43.981Z,99.90
2023-05-12T00:19:11.146Z,99.90
2023-05-12T00:21:38.289Z,99.90
2023-05-12T00:24:05.926Z,99.90
2023-05-12T00:26:33.018Z,99.90
2023-05-12T00:29:00.010Z,99.90
2023-05-12T00:31:27.120Z,99.90
2023-05-12T00:33:54.253Z,99.90
2023-05-12T00:36:21.384Z,99.90
2023-05-12T00:38:49.302Z,99.90
2023-05-12T00:41:16.751Z,99.90
2023-05-12T00:43:43.861Z,99.90
2023-05-12T00:46:11.492Z,99.90
2023-05-12T00:48:38.802Z,99.90
2023-05-12T00:51:06.303Z,99.90
2023-05-12T00:53:47.830Z,99.90
2023-05-12T00:56:20.530Z,99.90
2023-05-12T00:58:47.895Z,99.90
2023-05-12T01:01:18.409Z,99.90
2023-05-12T01:03:47.979Z,99.90
2023-05-12T01:06:34.663Z,99.90
2023-05-12T01:09:01.876Z,99.90
2023-05-12T01:11:30.021Z,99.90
2023-05-12T01:13:57.337Z,99.90
2023-05-12T01:16:37.148Z,99.90
2023-05-12T01:19:10.709Z,99.90
2023-05-12T01:21:39.112Z,99.90
2023-05-12T01:24:09.187Z,99.90
2023-05-12T01:26:37.810Z,99.90
2023-05-12T01:29:06.154Z,99.90
2023-05-12T01:31:34.127Z,99.90
2023-05-12T01:34:01.392Z,99.90
2023-05-12T01:36:28.941Z,99.90
2023-05-12T01:38:56.086Z,99.90
2023-05-12T01:41:23.396Z,99.90
2023-05-12T01:43:53.092Z,99.90
2023-05-12T01:46:21.284Z,99.90
2023-05-12T01:48:49.421Z,99.90
2023-05-12T01:51:17.372Z,99.90
2023-05-12T01:53:44.762Z,99.90
2023-05-12T01:56:12.179Z,99.90
2023-05-12T01:58:39.254Z,99.90
2023-05-12T02:01:07.167Z,99.90
2023-05-12T02:03:34.417Z,99.90
2023-05-12T02:06:01.695Z,99.90
2023-05-12T02:08:28.984Z,99.90
2023-05-12T02:11:08.973Z,99.90
2023-05-12T02:13:36.617Z,99.90
2023-05-12T02:16:04.104Z,99.90
2023-05-12T02:18:31.291Z,99.90
2023-05-12T02:20:58.355Z,99.90
2023-05-12T02:23:25.560Z,99.90
2023-05-12T02:25:52.720Z,99.90
2023-05-12T02:28:19.947Z,99.90
2023-05-12T02:30:52.916Z,99.90
2023-05-12T02:33:23.126Z,99.90
2023-05-12T02:35:50.778Z,99.90
2023-05-12T02:38:18.110Z,99.90
2023-05-12T02:40:47.492Z,99.90
2023-05-12T02:43:15.480Z,99.90
2023-05-12T02:45:42.931Z,99.90
2023-05-12T02:48:10.296Z,99.90
2023-05-12T02:50:37.681Z,99.90
2023-05-12T02:53:05.044Z,99.90
2023-05-12T02:55:32.095Z,99.90
2023-05-12T02:57:59.200Z,99.90
2023-05-12T03:00:26.377Z,99.90
2023-05-12T03:02:53.545Z,99.90
2023-05-12T03:05:20.881Z,99.90
2023-05-12T03:07:49.737Z,99.90
2023-05-12T03:10:20.222Z,99.90
2023-05-12T03:12:47.519Z,99.90
2023-05-12T03:15:14.934Z,99.90
2023-05-12T03:17:42.426Z,99.90
2023-05-12T03:20:10.150Z,99.90
2023-05-12T03:22:37.800Z,99.90
2023-05-12T03:25:05.933Z,99.90
2023-05-12T03:27:33.111Z,99.90
2023-05-12T03:30:01.004Z,99.90
2023-05-12T03:32:28.788Z,99.90
2023-05-12T03:34:56.141Z,99.90
2023-05-12T03:37:23.328Z,99.90
2023-05-12T03:39:50.554Z,99.90
2023-05-12T03:42:17.672Z,99.90
2023-05-12T03:44:44.957Z,99.90
2023-05-12T03:47:12.688Z,99.90
2023-05-12T03:49:40.112Z,99.90
2023-05-12T03:52:07.434Z,99.90
2023-05-12T03:54:36.560Z,99.90
2023-05-12T03:57:05.288Z,99.90
2023-05-12T03:59:32.666Z,99.90
2023-05-12T04:01:59.928Z,99.90
2023-05-12T04:04:27.004Z,99.90
2023-05-12T04:06:54.150Z,99.90
2023-05-12T04:09:21.323Z,99.90
2023-05-12T04:11:48.311Z,99.90
2023-05-12T04:14:16.673Z,99.90
2023-05-12T04:16:43.759Z,99.90
2023-05-12T04:19:10.893Z,99.90
2023-05-12T04:21:38.159Z,99.90
2023-05-12T04:24:05.581Z,99.90
2023-05-12T04:26:35.636Z,99.90
2023-05-12T04:29:02.700Z,99.90
2023-05-12T04:31:31.598Z,99.90
2023-05-12T04:33:58.640Z,99.90
2023-05-12T04:36:25.969Z,99.90
2023-05-12T04:38:55.034Z,99.90
2023-05-12T04:41:22.494Z,99.90
2023-05-12T04:46:19.651Z,99.90
2023-05-12T04:48:46.655Z,99.90
2023-05-12T04:51:13.938Z,99.90
2023-05-12T04:53:41.034Z,99.90
2023-05-12T04:56:08.240Z,99.90
2023-05-12T04:58:38.413Z,99.90
2023-05-12T05:01:06.893Z,99.90
2023-05-12T05:03:34.209Z,99.90
2023-05-12T05:06:01.511Z,99.90
2023-05-12T05:08:28.520Z,99.90
2023-05-12T05:10:55.704Z,99.90
2023-05-12T05:13:22.802Z,99.90
2023-05-12T05:15:52.281Z,99.90
2023-05-12T05:18:22.323Z,99.90
2023-05-12T05:20:58.011Z,99.90
2023-05-12T05:23:26.671Z,99.90
2023-05-12T05:25:53.978Z,99.90
2023-05-12T05:28:21.058Z,99.90
2023-05-12T05:30:48.243Z,99.90
2023-05-12T05:33:15.757Z,99.90
2023-05-12T05:35:43.063Z,99.90
2023-05-12T05:38:11.565Z,99.90
2023-05-12T05:40:51.658Z,99.90
2023-05-12T05:43:23.065Z,99.90
2023-05-12T05:45:51.400Z,99.90
2023-05-12T05:48:20.896Z,99.90
2023-05-12T05:50:48.698Z,99.90
2023-05-12T05:53:18.339Z,99.90
2023-05-12T05:55:46.553Z,99.90
2023-05-12T05:58:14.826Z,99.90
2023-05-12T06:00:43.467Z,99.90
2023-05-12T06:03:10.691Z,99.90
2023-05-12T06:05:38.356Z,99.90
2023-05-12T06:08:08.876Z,99.90
2023-05-12T06:10:35.983Z,99.90
2023-05-12T06:13:03.248Z,99.90
2023-05-12T06:15:30.653Z,99.90
2023-05-12T06:17:57.623Z,99.90
2023-05-12T06:20:25.190Z,99.90
2023-05-12T06:22:52.372Z,99.90
2023-05-12T06:25:19.758Z,99.90
2023-05-12T06:27:47.055Z,99.90
2023-05-12T06:30:16.154Z,99.90
2023-05-12T06:32:43.632Z,99.90
2023-05-12T06:35:10.786Z,99.90
2023-05-12T06:37:38.668Z,99.90
2023-05-12T06:40:07.433Z,99.90
2023-05-12T06:42:34.605Z,99.90
2023-05-12T06:45:09.607Z,99.90
2023-05-12T06:47:36.759Z,99.90
2023-05-12T06:50:04.483Z,99.90
2023-05-12T06:52:31.753Z,99.90
2023-05-12T06:54:58.823Z,99.90
2023-05-12T06:57:26.399Z,99.90
2023-05-12T06:59:53.489Z,99.90
2023-05-12T07:02:20.655Z,99.90
2023-05-12T07:04:47.737Z,99.90
2023-05-12T07:07:15.166Z,99.90
2023-05-12T07:09:43.107Z,99.90
2023-05-12T07:12:10.186Z,99.90
2023-05-12T07:14:37.423Z,99.90
2023-05-12T07:17:04.613Z,99.90
2023-05-12T07:19:31.596Z,99.90
2023-05-12T07:21:58.826Z,99.90
2023-05-12T07:24:25.915Z,99.90
2023-05-12T07:26:52.904Z,99.90
2023-05-12T07:29:19.974Z,99.90
2023-05-12T07:31:47.277Z,99.90
2023-05-12T07:34:15.117Z,99.90
2023-05-12T07:36:42.202Z,99.90
2023-05-12T07:39:09.201Z,99.90
2023-05-12T07:41:36.376Z,99.90
2023-05-12T07:44:03.475Z,99.90
2023-05-12T07:46:30.653Z,99.90
2023-05-12T07:48:57.678Z,99.90
2023-05-12T07:51:24.970Z,99.90
2023-05-12T07:53:52.052Z,99.90
2023-05-12T07:56:19.057Z,99.90
2023-05-12T07:58:47.515Z,99.90
2023-05-12T08:01:15.237Z,99.90
2023-05-12T08:03:42.445Z,99.90
2023-05-12T08:06:09.849Z,99.90
2023-05-12T08:08:37.021Z,99.90
2023-05-12T08:11:04.670Z,99.90
2023-05-12T08:13:31.847Z,99.90
2023-05-12T08:15:58.834Z,99.90
2023-05-12T08:18:25.976Z,99.90
2023-05-12T08:20:53.033Z,99.90
2023-05-12T08:23:20.353Z,99.90
2023-05-12T08:25:48.537Z,99.90
2023-05-12T08:28:15.728Z,99.90
2023-05-12T08:30:45.096Z,99.90
2023-05-12T08:33:12.732Z,99.90
2023-05-12T08:35:40.147Z,99.90
2023-05-12T08:38:08.338Z,99.90
2023-05-12T08:40:47.624Z,99.90
2023-05-12T08:43:30.016Z,99.90
2023-05-12T08:45:58.467Z,99.90
2023-05-12T08:48:27.856Z,99.90
2023-05-12T08:50:55.644Z,99.90
2023-05-12T08:53:25.813Z,99.90
2023-05-12T08:57:09.380Z,99.90
2023-05-12T08:58:44.863Z,99.90
2023-05-12T09:01:14.759Z,99.90
2023-05-12T09:03:42.341Z,99.90
2023-05-12T09:06:11.426Z,99.90
2023-05-12T09:08:39.255Z,99.90
2023-05-12T09:11:07.012Z,99.90
2023-05-12T09:14:09.158Z,99.90
2023-05-12T09:16:46.879Z,99.90
2023-05-12T09:19:19.435Z,99.90
2023-05-12T09:21:47.220Z,99.90
2023-05-12T09:24:14.533Z,99.90
2023-05-12T09:26:54.749Z,99.90
2023-05-12T09:29:31.230Z,99.90
2023-05-12T09:32:02.338Z,99.90
2023-05-12T09:34:37.007Z,99.90
2023-05-12T09:37:06.607Z,99.90
2023-05-12T09:39:34.715Z,99.90
2023-05-12T09:42:01.827Z,99.90
2023-05-12T09:44:30.019Z,99.90
2023-05-12T09:47:07.253Z,99.90
2023-05-12T09:49:34.576Z,99.90
2023-05-12T09:52:04.926Z,99.90
2023-05-12T09:54:33.621Z,99.90
2023-05-12T09:57:04.879Z,99.90
2023-05-12T09:59:36.029Z,99.90
2023-05-12T10:02:06.195Z,99.90
2023-05-12T10:04:45.445Z,99.90
2023-05-12T10:07:14.469Z,99.90
2023-05-12T10:09:42.953Z,99.90
2023-05-12T10:12:10.908Z,99.90
2023-05-12T10:14:38.679Z,99.90
2023-05-12T10:17:07.180Z,99.90
2023-05-12T10:19:35.885Z,99.90
2023-05-12T10:22:04.163Z,99.90
2023-05-12T10:24:31.511Z,99.90
2023-05-12T10:26:59.703Z,99.90
2023-05-12T10:29:32.933Z,99.90
2023-05-12T10:32:03.342Z,99.90
2023-05-12T10:34:34.848Z,99.90
2023-05-12T10:37:09.051Z,99.90
2023-05-12T10:39:37.193Z,99.90
2023-05-12T10:42:09.045Z,99.90
2023-05-12T10:44:37.250Z,99.90
2023-05-12T10:47:16.153Z,99.90
2023-05-12T10:49:43.696Z,99.90
2023-05-12T10:52:19.976Z,99.90
2023-05-12T10:54:47.706Z,99.90
2023-05-12T10:57:21.605Z,99.90
2023-05-12T10:59:52.470Z,99.90
2023-05-12T11:02:32.971Z,99.90
2023-05-12T11:05:06.870Z,99.90
2023-05-12T11:07:35.643Z,99.90
2023-05-12T11:10:05.923Z,99.90
2023-05-12T11:12:38.020Z,99.90
2023-05-12T11:15:07.137Z,99.90
2023-05-12T11:17:38.968Z,99.90
2023-05-12T11:20:11.856Z,99.90
2023-05-12T11:22:42.828Z,99.90
2023-05-12T11:25:11.995Z,99.90
2023-05-12T11:27:42.520Z,99.90
2023-05-12T11:30:11.237Z,99.90
2023-05-12T11:32:38.470Z,99.90
2023-05-12T11:35:14.627Z,99.90
2023-05-12T11:37:44.054Z,99.90
2023-05-12T11:40:22.419Z,99.90
2023-05-12T11:42:55.775Z,99.90
2023-05-12T11:45:30.703Z,99.90
2023-05-12T11:48:11.324Z,99.90
2023-05-12T11:50:44.715Z,99.90
2023-05-12T11:53:14.704Z,99.90
2023-05-12T11:55:53.051Z,99.90
2023-05-12T11:58:30.627Z,99.90
2023-05-12T12:01:12.742Z,99.90
2023-05-12T12:03:51.699Z,99.90
2023-05-12T12:06:21.550Z,99.90
2023-05-12T12:08:57.548Z,99.90
2023-05-12T12:11:30.770Z,99.90
2023-05-12T12:13:57.938Z,99.90
2023-05-12T12:16:29.840Z,99.90
2023-05-12T12:18:58.289Z,99.90
2023-05-12T12:21:25.884Z,99.90
2023-05-12T12:23:53.156Z,99.90
2023-05-12T12:26:21.618Z,99.90
2023-05-12T12:28:49.506Z,99.90
2023-05-12T12:31:17.349Z,99.90
2023-05-12T12:33:44.412Z,99.90
2023-05-12T12:36:11.451Z,99.90
2023-05-12T12:38:38.480Z,99.90
2023-05-12T12:41:07.744Z,99.90
2023-05-12T12:43:35.236Z,99.90
2023-05-12T12:46:02.423Z,99.90
2023-05-12T12:48:29.602Z,99.90
2023-05-12T12:50:56.772Z,99.90
2023-05-12T12:53:24.067Z,99.90
2023-05-12T12:55:51.250Z,99.90
2023-05-12T12:58:18.524Z,99.90
2023-05-12T13:00:45.975Z,99.90
2023-05-12T13:03:13.300Z,99.90
2023-05-12T13:05:40.822Z,99.90
2023-05-12T13:08:08.148Z,99.90
2023-05-12T13:10:35.714Z,99.90
2023-05-12T13:13:02.931Z,98.90
2023-05-12T13:15:32.202Z,98.20
2023-05-12T13:17:59.545Z,99.70
2023-05-12T13:20:26.910Z,99.90
2023-05-12T13:22:53.926Z,98.60
2023-05-12T13:25:21.396Z,96.10
2023-05-12T13:27:48.824Z,97.80
2023-05-12T13:30:16.131Z,96.70
2023-05-12T13:32:43.236Z,98.40
2023-05-12T13:35:10.651Z,97.50
2023-05-12T13:37:38.106Z,97.90
2023-05-12T13:40:06.114Z,98.30
2023-05-12T13:42:33.180Z,99.90
2023-05-12T13:45:00.443Z,99.00
2023-05-12T13:47:28.045Z,99.40
2023-05-12T13:49:56.522Z,99.50
2023-05-12T13:52:23.821Z,98.40
2023-05-12T13:54:51.224Z,98.50
2023-05-12T13:57:18.504Z,98.80
2023-05-12T13:59:45.685Z,98.60
2023-05-12T14:02:13.787Z,99.20
2023-05-12T14:04:40.845Z,98.80
2023-05-12T14:07:08.765Z,97.60
2023-05-12T14:09:35.966Z,97.30
2023-05-12T14:12:04.345Z,96.50
2023-05-12T14:14:31.576Z,95.50
2023-05-12T14:16:58.919Z,95.40
2023-05-12T14:19:26.134Z,94.80
2023-05-12T14:21:53.300Z,93.80
2023-05-12T14:24:20.484Z,94.80
2023-05-12T14:26:47.735Z,95.10
2023-05-12T14:29:15.093Z,96.90
2023-05-12T14:31:42.287Z,96.00
2023-05-12T14:34:09.487Z,96.70
2023-05-12T14:36:36.643Z,97.20
2023-05-12T14:39:03.845Z,97.70
2023-05-12T14:41:30.925Z,97.30
2023-05-12T14:43:58.265Z,98.00
2023-05-12T14:46:25.796Z,99.10
2023-05-12T14:48:52.992Z,99.70
2023-05-12T14:51:20.028Z,98.70
2023-05-12T14:53:47.086Z,98.10
2023-05-12T14:56:14.416Z,99.30
2023-05-12T14:58:41.561Z,99.10
2023-05-12T15:01:09.555Z,98.00
2023-05-12T15:03:37.364Z,97.90
2023-05-12T15:06:08.148Z,97.50
2023-05-12T15:08:38.902Z,98.40
2023-05-12T15:11:06.165Z,97.80
2023-05-12T15:13:33.196Z,97.20
2023-05-12T15:16:00.368Z,96.30
2023-05-12T15:18:27.571Z,98.30
2023-05-12T15:20:54.568Z,98.20
2023-05-12T15:23:21.981Z,98.20
2023-05-12T15:25:49.117Z,96.70
2023-05-12T15:28:17.229Z,94.30
2023-05-12T15:30:45.322Z,94.60
2023-05-12T15:33:12.367Z,94.20
2023-05-12T15:35:40.587Z,94.30
2023-05-12T15:38:07.534Z,95.30
2023-05-12T15:40:34.530Z,95.10
2023-05-12T15:43:01.547Z,96.40
2023-05-12T15:45:28.739Z,93.70
2023-05-12T15:47:56.792Z,93.00
2023-05-12T15:50:24.552Z,92.20
2023-05-12T15:52:52.004Z,92.00
2023-05-12T15:55:19.631Z,90.20
2023-05-12T15:57:47.140Z,91.40
2023-05-12T16:00:15.464Z,90.30
2023-05-12T16:02:42.724Z,89.20
2023-05-12T16:05:10.165Z,88.90
2023-05-12T16:07:37.527Z,90.00
2023-05-12T16:10:05.823Z,90.30
2023-05-12T16:12:32.816Z,91.70
2023-05-12T16:15:00.290Z,91.10
2023-05-12T16:17:27.820Z,91.90
2023-05-12T16:19:56.858Z,92.20
2023-05-12T16:22:24.319Z,92.80
2023-05-12T16:24:51.368Z,93.00
2023-05-12T16:27:18.370Z,93.40
2023-05-12T16:29:45.861Z,93.70
2023-05-12T16:32:13.345Z,93.20
2023-05-12T16:34:40.576Z,93.20
2023-05-12T16:37:07.701Z,92.90
2023-05-12T16:39:35.904Z,93.60
2023-05-12T16:42:03.575Z,93.50
2023-05-12T16:44:30.578Z,93.60
2023-05-12T16:46:57.692Z,92.80
2023-05-12T16:49:24.805Z,92.30
2023-05-12T16:51:51.866Z,93.20
2023-05-12T16:54:18.902Z,93.10
2023-05-12T16:56:45.942Z,93.20
2023-05-12T16:59:13.514Z,93.40
2023-05-12T17:01:40.787Z,92.80
2023-05-12T17:04:10.067Z,92.40
2023-05-12T17:06:37.224Z,92.00
2023-05-12T17:09:04.461Z,93.10
2023-05-12T17:11:31.662Z,92.70
2023-05-12T17:13:58.915Z,93.40
2023-05-12T17:16:25.990Z,93.90
2023-05-12T17:21:23.185Z,95.20
2023-05-12T17:23:50.650Z,95.30
2023-05-12T17:26:17.905Z,95.70
2023-05-12T17:28:45.150Z,95.90
2023-05-12T17:31:12.206Z,97.00
2023-05-12T17:33:39.449Z,97.50
2023-05-12T17:36:11.755Z,98.40
2023-05-12T17:38:40.458Z,99.40
2023-05-12T17:41:07.588Z,99.90
2023-05-12T17:43:34.648Z,99.90
2023-05-12T17:46:02.410Z,99.90
2023-05-12T17:48:33.013Z,99.90
2023-05-12T17:51:01.269Z,99.90
2023-05-12T17:53:28.954Z,99.90
2023-05-12T17:55:56.079Z,99.90
2023-05-12T17:58:23.541Z,99.90
2023-05-12T18:00:51.954Z,99.90
2023-05-12T18:03:23.366Z,99.90
2023-05-12T18:05:52.582Z,99.90
2023-05-12T18:08:19.681Z,99.90
2023-05-12T18:10:47.131Z,99.90
2023-05-12T18:13:15.575Z,99.90
2023-05-12T18:15:43.169Z,99.90
2023-05-12T18:18:10.778Z,99.90
2023-05-12T18:20:38.092Z,99.90
2023-05-12T18:23:05.329Z,99.90
2023-05-12T18:25:32.629Z,99.90
2023-05-12T18:27:59.771Z,99.90
2023-05-12T18:30:26.903Z,99.90
2023-05-12T18:32:54.075Z,99.90
2023-05-12T18:35:21.897Z,99.90
2023-05-12T18:37:49.565Z,99.90
2023-05-12T18:40:16.932Z,99.90
2023-05-12T18:42:44.174Z,99.90
2023-05-12T18:45:12.004Z,99.90
2023-05-12T18:47:39.435Z,99.90
2023-05-12T18:50:07.623Z,99.90
2023-05-12T18:52:34.664Z,99.90
2023-05-12T18:55:01.824Z,99.90
2023-05-12T18:57:28.843Z,99.90
2023-05-12T18:59:55.822Z,99.90
2023-05-12T19:02:22.975Z,99.90
2023-05-12T19:04:50.104Z,99.90
2023-05-12T19:07:17.483Z,99.90
2023-05-12T19:09:45.133Z,99.90
2023-05-12T19:12:12.207Z,99.90
2023-05-12T19:14:40.872Z,99.90
2023-05-12T19:17:08.003Z,99.90
2023-05-12T19:19:35.502Z,99.90
2023-05-12T19:22:04.438Z,99.90
2023-05-12T19:24:31.619Z,99.90
2023-05-12T19:26:59.240Z,99.90
2023-05-12T19:29:26.233Z,99.90
2023-05-12T19:31:53.640Z,99.90
2023-05-12T19:34:21.542Z,99.90
2023-05-12T19:36:48.564Z,99.90
2023-05-12T19:39:15.612Z,99.90
2023-05-12T19:41:42.768Z,99.90
2023-05-12T19:44:09.870Z,99.90
2023-05-12T19:46:37.185Z,99.90
2023-05-12T19:49:05.860Z,99.90
2023-05-12T19:51:33.215Z,99.90
2023-05-12T19:54:01.934Z,99.90
2023-05-12T19:56:29.852Z,99.90
2023-05-12T19:58:57.032Z,99.90
2023-05-12T20:01:24.767Z,99.90
2023-05-12T20:03:53.302Z,99.90
2023-05-12T20:06:21.902Z,99.90
2023-05-12T20:08:48.956Z,99.90
2023-05-12T20:11:16.206Z,99.90
2023-05-12T20:13:43.320Z,99.90
2023-05-12T20:16:10.593Z,99.90
2023-05-12T20:18:37.695Z,99.90
2023-05-12T20:21:04.816Z,99.90
2023-05-12T20:23:32.101Z,99.90
2023-05-12T20:26:00.070Z,99.90
2023-05-12T20:28:28.296Z,99.90
2023-05-12T20:30:55.566Z,99.90
2023-05-12T20:33:22.724Z,99.90
2023-05-12T20:35:49.862Z,99.90
2023-05-12T20:38:17.004Z,99.90
2023-05-12T20:40:44.131Z,99.90
2023-05-12T20:43:13.471Z,99.90
2023-05-12T20:45:41.349Z,99.90
2023-05-12T20:48:09.086Z,99.90
2023-05-12T20:50:36.126Z,99.90
2023-05-12T20:53:03.160Z,99.90
2023-05-12T20:55:33.095Z,99.90
2023-05-12T20:58:00.321Z,99.90
2023-05-12T21:00:27.493Z,99.90
2023-05-12T21:02:55.574Z,99.90
2023-05-12T21:05:22.966Z,99.90
2023-05-12T21:07:50.289Z,99.90
2023-05-12T21:10:17.568Z,99.90
2023-05-12T21:12:44.808Z,99.90
2023-05-12T21:15:12.946Z,99.90
2023-05-12T21:17:41.877Z,99.90
2023-05-12T21:20:11.223Z,99.90
2023-05-12T21:22:40.613Z,99.90
2023-05-12T21:25:08.142Z,99.90
2023-05-12T21:27:40.526Z,99.90
2023-05-12T21:30:10.055Z,99.90
2023-05-12T21:32:37.197Z,99.90
2023-05-12T21:35:05.404Z,99.90
2023-05-12T21:37:32.565Z,99.90
2023-05-12T21:39:59.684Z,99.90
2023-05-12T21:42:26.782Z,99.90
2023-05-12T21:44:54.015Z,99.90
2023-05-12T21:47:21.004Z,99.90
2023-05-12T21:49:48.128Z,99.90
2023-05-12T21:52:16.023Z,99.90
2023-05-12T21:54:43.065Z,99.90
2023-05-12T21:57:10.157Z,99.90
2023-05-12T21:59:37.270Z,99.90
2023-05-12T22:02:04.728Z,99.90
2023-05-12T22:04:31.750Z,99.90
2023-05-12T22:06:58.824Z,99.90
2023-05-12T22:09:26.090Z,99.90
2023-05-12T22:11:53.429Z,99.90
2023-05-12T22:14:20.890Z,99.90
2023-05-12T22:16:49.188Z,99.90
2023-05-12T22:19:17.001Z,99.90
2023-05-12T22:21:44.324Z,99.90
2023-05-12T22:24:11.302Z,99.90
2023-05-12T22:26:38.553Z,99.90
2023-05-12T22:29:05.785Z,99.90
2023-05-12T22:31:32.903Z,99.90
2023-05-12T22:34:00.139Z,99.90
2023-05-12T22:36:27.278Z,99.90
2023-05-12T22:38:54.415Z,99.90
2023-05-12T22:41:21.560Z,99.90
2023-05-12T22:43:48.838Z,99.90
2023-05-12T22:46:15.869Z,99.90
2023-05-12T22:48:43.928Z,99.90
2023-05-12T22:51:11.094Z,99.90
2023-05-12T22:53:41.393Z,99.90
2023-05-12T22:56:08.836Z,99.90
2023-05-12T22:58:35.952Z,99.90
2023-05-12T23:01:03.595Z,99.90
2023-05-12T23:03:32.630Z,99.90
2023-05-12T23:05:59.777Z,99.90
2023-05-12T23:08:26.845Z,99.90
2023-05-12T23:10:53.862Z,99.90
2023-05-12T23:13:21.042Z,99.90
2023-05-12T23:15:48.211Z,99.90
2023-05-12T23:18:15.500Z,99.90
2023-05-12T23:20:42.982Z,99.90
2023-05-12T23:23:11.043Z,99.90
2023-05-12T23:25:38.821Z,99.90
2023-05-12T23:28:06.571Z,99.90
2023-05-12T23:30:33.664Z,99.90
2023-05-12T23:33:00.860Z,99.90
2023-05-12T23:35:28.101Z,99.90
2023-05-12T23:37:55.274Z,99.90
2023-05-12T23:40:22.540Z,99.90
2023-05-12T23:42:49.750Z,99.90
2023-05-12T23:45:16.834Z,99.90
2023-05-12T23:47:44.276Z,99.90
2023-05-12T23:50:11.620Z,99.90
2023-05-12T23:52:38.822Z,99.90
2023-05-12T23:55:06.460Z,99.90
2023-05-12T23:57:33.635Z,99.90
